Time;durP1;ratioP1;P1;durP2;ratioP2;P2;SDS_P1;SDS_P2;PMS_P1;PMS_P2;Temp;Humidity;BMP_temperature;BMP_pressure;BME280_temperature;BME280_humidity;BME280_pressure;Samples;Min_cycle;Max_cycle;Signal;HPM_P1;HPM_P2
2023/01/04 00:00:06;;;;;;;7.17;1.30;;;8.40;99.90;;;;;;5032806;28;20621;-44
2023/01/04 00:02:31;;;;;;;1.37;0.80;;;8.40;99.90;;;;;;5033089;28;20205;-46
2023/01/04 00:04:57;;;;;;;3.17;1.23;;;8.40;99.90;;;;;;5033890;28;20497;-44
2023/01/04 00:07:23;;;;;;;1.37;0.57;;;8.50;99.90;;;;;;5032895;28;20565;-44
2023/01/04 00:09:48;;;;;;;4.17;1.80;;;8.50;99.90;;;;;;5033068;28;20260;-45
2023/01/04 00:12:14;;;;;;;2.13;1.10;;;8.50;99.90;;;;;;5032834;28;20232;-47
2023/01/04 00:14:39;;;;;;;3.90;1.00;;;8.60;99.90;;;;;;5032809;28;20176;-47
2023/01/04 00:17:05;;;;;;;0.97;0.80;;;8.60;99.90;;;;;;5032953;28;20272;-47
2023/01/04 00:19:30;;;;;;;3.77;1.33;;;8.60;99.90;;;;;;5033003;28;20185;-45
2023/01/04 00:21:56;;;;;;;1.43;0.63;;;8.60;99.90;;;;;;5033011;28;20208;-46
2023/01/04 00:24:21;;;;;;;3.47;1.20;;;8.70;99.90;;;;;;5033144;28;20187;-45
2023/01/04 00:26:47;;;;;;;3.63;1.20;;;8.70;99.90;;;;;;5033134;28;20538;-47
2023/01/04 00:29:13;;;;;;;6.03;1.37;;;8.80;99.90;;;;;;5033061;28;20254;-46
2023/01/04 00:31:39;;;;;;;4.40;1.10;;;8.80;99.90;;;;;;5033197;28;20220;-46
2023/01/04 00:34:05;;;;;;;3.13;0.67;;;8.80;99.90;;;;;;5032976;28;20186;-48
2023/01/04 00:36:33;;;;;;;4.80;1.17;;;8.80;99.90;;;;;;5034836;28;20610;-44
2023/01/04 00:39:06;;;;;;;4.23;1.43;;;8.80;99.90;;;;;;5036653;28;20268;-46
2023/01/04 00:41:40;;;;;;;6.90;1.23;;;8.80;99.90;;;;;;5036190;28;20703;-45
2023/01/04 00:44:06;;;;;;;2.77;1.20;;;8.90;99.90;;;;;;5036368;28;20278;-44
2023/01/04 00:46:33;;;;;;;4.73;1.10;;;8.90;99.90;;;;;;5036320;28;20212;-47
2023/01/04 00:48:59;;;;;;;2.17;1.00;;;9.00;99.90;;;;;;5036274;28;20181;-46
2023/01/04 00:51:25;;;;;;;5.07;1.57;;;9.00;99.90;;;;;;5036176;28;20601;-44
2023/01/04 00:53:51;;;;;;;4.37;1.30;;;9.00;99.90;;;;;;5035906;28;20178;-46
2023/01/04 00:56:17;;;;;;;6.00;0.70;;;8.90;99.90;;;;;;5036319;28;20185;-46
2023/01/04 00:58:42;;;;;;;1.30;0.87;;;8.90;99.90;;;;;;5036225;28;20193;-46
2023/01/04 01:01:08;;;;;;;9.47;1.30;;;8.90;99.90;;;;;;5036047;28;20562;-46
2023/01/04 01:03:34;;;;;;;1.07;0.80;;;8.90;99.90;;;;;;5035930;28;20292;-45
2023/01/04 01:06:05;;;;;;;2.63;0.90;;;8.90;99.90;;;;;;5036084;28;20670;-45
2023/01/04 01:08:34;;;;;;;6.33;1.23;;;8.90;99.90;;;;;;5036497;28;20169;-45
2023/01/04 01:11:06;;;;;;;4.13;1.17;;;8.80;99.90;;;;;;5036085;28;20198;-47
2023/01/04 01:13:32;;;;;;;4.00;0.80;;;8.80;99.90;;;;;;5035929;28;20193;-47
2023/01/04 01:16:10;;;;;;;3.57;1.00;;;8.80;99.90;;;;;;5035666;28;20184;-47
2023/01/04 01:18:37;;;;;;;6.57;1.47;;;8.80;99.90;;;;;;5035713;28;20209;-46
2023/01/04 01:21:05;;;;;;;2.67;1.10;;;8.80;99.90;;;;;;5035717;28;20214;-46
2023/01/04 01:23:30;;;;;;;1.67;1.10;;;8.90;99.90;;;;;;5035595;28;20193;-47
2023/01/04 01:26:00;;;;;;;0.90;0.63;;;8.90;99.90;;;;;;5036002;28;20201;-45
2023/01/04 01:28:26;;;;;;;3.87;1.03;;;8.90;99.90;;;;;;5035875;28;20174;-44
2023/01/04 01:30:52;;;;;;;1.13;0.70;;;8.90;99.90;;;;;;5035385;28;20671;-46
2023/01/04 01:33:18;;;;;;;2.17;0.90;;;8.90;99.90;;;;;;5035341;28;20553;-45
2023/01/04 01:35:43;;;;;;;4.30;1.07;;;8.90;99.90;;;;;;5035517;28;20191;-46
2023/01/04 01:38:09;;;;;;;3.33;1.43;;;8.90;99.90;;;;;;5035039;28;20182;-45
2023/01/04 01:40:40;;;;;;;1.20;0.70;;;8.90;99.90;;;;;;5035455;28;20234;-46
2023/01/04 01:43:17;;;;;;;2.23;0.53;;;8.90;99.90;;;;;;5035540;28;20291;-46
2023/01/04 01:45:43;;;;;;;0.90;0.70;;;8.90;99.90;;;;;;5035176;28;20200;-46
2023/01/04 01:48:22;;;;;;;2.53;0.87;;;9.00;99.90;;;;;;5034132;28;20316;-44
2023/01/04 01:50:56;;;;;;;1.67;0.80;;;8.90;99.90;;;;;;5035127;28;20178;-45
2023/01/04 01:53:24;;;;;;;3.20;0.83;;;8.90;99.90;;;;;;5035447;28;20167;-47
2023/01/04 01:55:51;;;;;;;2.80;1.17;;;8.90;99.90;;;;;;5034675;28;20313;-46
2023/01/04 01:58:27;;;;;;;2.83;0.70;;;8.90;99.90;;;;;;5034695;28;20190;-46
2023/01/04 02:00:53;;;;;;;5.53;0.90;;;8.90;99.90;;;;;;5034865;28;20273;-47
2023/01/04 02:03:28;;;;;;;1.87;0.77;;;8.90;99.90;;;;;;5034883;28;20281;-43
2023/01/04 02:05:56;;;;;;;2.00;0.97;;;8.90;99.90;;;;;;5034824;28;20228;-46
2023/01/04 02:08:23;;;;;;;1.60;0.77;;;8.90;99.90;;;;;;5035204;28;20178;-44
2023/01/04 02:10:49;;;;;;;1.63;0.73;;;8.90;99.90;;;;;;5034400;28;20189;-47
2023/01/04 02:13:18;;;;;;;5.40;0.80;;;8.90;99.90;;;;;;5034449;28;20189;-46
2023/01/04 02:16:02;;;;;;;2.07;0.90;;;8.90;99.90;;;;;;5034527;28;20182;-45
2023/01/04 02:18:47;;;;;;;1.80;1.13;;;8.90;99.90;;;;;;5034878;28;20164;-45
2023/01/04 02:21:26;;;;;;;2.87;0.60;;;8.90;99.90;;;;;;5034701;28;20599;-45
2023/01/04 02:24:42;;;;;;;0.50;0.50;;;8.90;99.90;;;;;;5034437;28;20525;-47
2023/01/04 02:27:19;;;;;;;0.83;0.60;;;8.90;99.90;;;;;;4916070;29;20273;-46
2023/01/04 02:32:22;;;;;;;1.20;0.70;;;9.00;99.90;;;;;;5046664;28;20221;-45
2023/01/04 02:35:15;;;;;;;0.60;0.60;;;9.10;99.90;;;;;;5053957;28;20179;-46
2023/01/04 02:37:50;;;;;;;2.43;0.60;;;9.10;99.90;;;;;;5053886;28;20164;-45
2023/01/04 02:40:25;;;;;;;2.13;0.60;;;9.10;99.90;;;;;;5054106;28;20570;-46
2023/01/04 02:46:05;;;;;;;2.43;0.80;;;9.20;99.90;;;;;;5053952;28;20311;-45
2023/01/04 02:51:36;;;;;;;1.70;0.63;;;9.20;99.90;;;;;;5053994;28;20226;-44
2023/01/04 02:54:08;;;;;;;1.10;0.60;;;9.20;99.90;;;;;;5053883;28;20190;-40
2023/01/04 02:56:56;;;;;;;1.50;0.50;;;9.30;99.90;;;;;;5035809;28;20178;-44
2023/01/04 02:59:36;;;;;;;1.10;0.60;;;9.20;99.90;;;;;;5053102;28;20277;-41
2023/01/04 03:08:48;;;;;;;1.00;0.60;;;9.30;99.90;;;;;;5053054;28;20221;-43
2023/01/04 03:14:23;;;;;;;0.77;0.53;;;9.40;99.90;;;;;;5057209;28;20256;-41
2023/01/04 03:16:50;;;;;;;0.40;0.40;;;9.40;99.90;;;;;;5055036;28;20248;-44
2023/01/04 03:36:55;;;;;;;0.53;0.47;;;9.60;99.90;;;;;;5025412;28;20227;-44
2023/01/04 03:48:59;;;;;;;1.03;0.40;;;9.60;99.90;;;;;;5053230;28;20164;-43
2023/01/04 03:51:32;;;;;;;0.23;0.23;;;9.60;99.90;;;;;;5051985;28;20689;-44
2023/01/04 03:54:50;;;;;;;5.30;0.47;;;9.50;99.90;;;;;;5052866;28;20153;-47
2023/01/04 03:57:16;;;;;;;2.73;0.30;;;9.50;99.90;;;;;;5031814;28;20188;-45
2023/01/04 04:00:08;;;;;;;1.17;0.40;;;9.50;99.90;;;;;;5053290;28;20183;-48
2023/01/04 04:02:35;;;;;;;1.03;0.50;;;9.50;99.90;;;;;;5053058;28;20546;-43
2023/01/04 04:10:30;;;;;;;0.90;0.40;;;9.50;99.90;;;;;;5054123;28;20209;-46
2023/01/04 04:12:55;;;;;;;0.47;0.40;;;9.60;99.90;;;;;;5056563;28;20215;-43
2023/01/04 04:15:21;;;;;;;0.80;0.37;;;9.60;99.90;;;;;;5056819;28;20183;-44
2023/01/04 04:17:47;;;;;;;1.60;0.40;;;9.60;99.90;;;;;;5056830;28;20210;-44
2023/01/04 04:20:12;;;;;;;0.30;0.30;;;9.60;99.90;;;;;;5056797;28;20176;-42
2023/01/04 04:22:39;;;;;;;0.27;0.27;;;9.60;99.90;;;;;;5056460;28;20188;-43
2023/01/04 04:25:05;;;;;;;0.30;0.30;;;9.60;99.90;;;;;;5057233;28;20179;-42
2023/01/04 04:27:31;;;;;;;0.93;0.40;;;9.60;99.90;;;;;;5038380;28;20212;-45
2023/01/04 04:29:56;;;;;;;0.77;0.30;;;9.70;99.90;;;;;;5056315;28;20532;-42
2023/01/04 04:32:22;;;;;;;0.47;0.30;;;9.70;99.90;;;;;;5056316;28;20211;-41
2023/01/04 04:34:48;;;;;;;1.83;0.60;;;9.70;99.90;;;;;;5039216;28;20185;-43
2023/01/04 04:37:14;;;;;;;0.33;0.30;;;9.80;99.90;;;;;;5038275;28;20658;-43
2023/01/04 04:39:39;;;;;;;0.43;0.43;;;9.80;99.90;;;;;;5056156;28;20195;-43
2023/01/04 04:42:05;;;;;;;0.33;0.33;;;9.80;99.90;;;;;;5038140;28;20251;-44
2023/01/04 04:44:34;;;;;;;0.40;0.40;;;9.80;99.90;;;;;;5056139;28;20181;-44
2023/01/04 04:46:59;;;;;;;3.40;0.43;;;9.80;99.90;;;;;;5038081;28;20208;-45
2023/01/04 04:49:25;;;;;;;1.07;0.37;;;9.90;99.90;;;;;;5056059;28;20662;-46
2023/01/04 04:51:51;;;;;;;1.40;0.40;;;9.90;99.90;;;;;;5056777;28;20240;-44
2023/01/04 04:54:19;;;;;;;0.30;0.30;;;9.90;99.90;;;;;;5057418;28;20176;-45
2023/01/04 04:56:46;;;;;;;0.40;0.40;;;9.90;99.90;;;;;;5056380;28;20181;-43
2023/01/04 04:59:12;;;;;;;0.30;0.30;;;10.00;99.90;;;;;;5056119;28;20267;-45
2023/01/04 05:01:37;;;;;;;0.37;0.23;;;10.00;99.90;;;;;;5055676;28;20310;-44
2023/01/04 05:04:03;;;;;;;0.80;0.40;;;10.00;99.90;;;;;;5055679;28;20192;-43
2023/01/04 05:06:29;;;;;;;0.27;0.27;;;10.00;99.90;;;;;;5055617;28;20646;-43
2023/01/04 05:08:55;;;;;;;0.37;0.37;;;10.00;99.90;;;;;;5055848;28;20663;-44
2023/01/04 05:12:58;;;;;;;0.37;0.37;;;10.00;99.90;;;;;;5055480;28;20234;-43
2023/01/04 05:14:06;;;;;;;0.40;0.40;;;10.00;99.90;;;;;;5055281;28;20185;-43
2023/01/04 05:16:32;;;;;;;0.30;0.30;;;10.10;99.90;;;;;;5055468;28;20187;-41
2023/01/04 05:18:57;;;;;;;0.67;0.30;;;10.10;99.90;;;;;;5055506;28;20178;-44
2023/01/04 05:21:23;;;;;;;1.40;0.30;;;10.10;99.90;;;;;;5055222;28;20196;-42
2023/01/04 05:23:48;;;;;;;0.20;0.20;;;10.10;99.90;;;;;;5055302;28;20201;-45
2023/01/04 05:26:14;;;;;;;0.20;0.20;;;10.10;99.90;;;;;;5055491;28;20674;-45
2023/01/04 05:28:39;;;;;;;0.30;0.30;;;10.10;99.90;;;;;;5055193;28;20173;-43
2023/01/04 05:31:05;;;;;;;0.30;0.30;;;10.10;99.90;;;;;;5055170;28;20709;-44
2023/01/04 05:33:31;;;;;;;0.37;0.33;;;10.20;99.90;;;;;;5055405;28;20191;-47
2023/01/04 05:36:00;;;;;;;0.30;0.30;;;10.10;99.90;;;;;;5055469;28;20183;-42
2023/01/04 05:38:26;;;;;;;0.40;0.40;;;10.20;99.90;;;;;;5055456;28;20184;-49
2023/01/04 05:40:52;;;;;;;0.67;0.40;;;10.20;99.90;;;;;;5055371;28;20600;-50
2023/01/04 05:43:19;;;;;;;0.90;0.40;;;10.20;99.90;;;;;;5055214;28;20614;-50
2023/01/04 05:45:50;;;;;;;1.47;0.40;;;10.20;99.90;;;;;;5054673;28;20235;-48
2023/01/04 05:48:17;;;;;;;0.37;0.37;;;10.20;99.90;;;;;;5054803;28;20172;-49
2023/01/04 05:50:44;;;;;;;0.20;0.20;;;10.20;99.90;;;;;;5054738;28;20560;-49
2023/01/04 05:53:12;;;;;;;0.30;0.30;;;10.30;99.90;;;;;;5055021;28;20593;-49
2023/01/04 05:55:37;;;;;;;0.53;0.40;;;10.30;99.90;;;;;;5054919;28;20192;-47
2023/01/04 05:58:03;;;;;;;0.37;0.37;;;10.20;99.90;;;;;;5054608;28;20649;-49
2023/01/04 06:00:29;;;;;;;1.73;0.40;;;10.20;99.90;;;;;;5054772;28;20213;-50
2023/01/04 06:02:55;;;;;;;0.33;0.33;;;10.20;99.90;;;;;;5036648;28;20200;-48
2023/01/04 06:05:22;;;;;;;0.43;0.40;;;10.30;99.90;;;;;;5054404;28;20721;-50
2023/01/04 06:07:47;;;;;;;0.30;0.30;;;10.30;99.90;;;;;;5054409;28;20255;-49
2023/01/04 06:10:13;;;;;;;0.67;0.40;;;10.30;99.90;;;;;;5054612;28;20247;-50
2023/01/04 06:12:39;;;;;;;1.80;0.57;;;10.30;99.90;;;;;;5054564;28;20200;-48
2023/01/04 06:15:06;;;;;;;0.30;0.30;;;10.30;99.90;;;;;;5054482;28;20182;-51
2023/01/04 06:17:33;;;;;;;0.30;0.30;;;10.40;99.90;;;;;;5054793;28;20174;-47
2023/01/04 06:19:58;;;;;;;0.47;0.47;;;10.40;99.90;;;;;;5054169;28;20177;-50
2023/01/04 06:22:25;;;;;;;0.30;0.30;;;10.40;99.90;;;;;;5054352;28;20279;-51
2023/01/04 06:24:51;;;;;;;0.40;0.33;;;10.50;99.90;;;;;;5054499;28;20198;-52
2023/01/04 06:27:17;;;;;;;0.20;0.20;;;10.50;99.90;;;;;;5054274;28;20204;-50
2023/01/04 06:29:43;;;;;;;0.40;0.30;;;10.50;99.90;;;;;;5036134;28;20187;-50
2023/01/04 06:32:08;;;;;;;1.63;0.40;;;10.50;99.90;;;;;;5036095;28;20250;-50
2023/01/04 06:34:34;;;;;;;0.20;0.20;;;10.50;99.90;;;;;;5053685;28;20175;-50
2023/01/04 06:37:00;;;;;;;3.20;0.40;;;10.50;99.90;;;;;;5054144;28;20678;-50
2023/01/04 06:39:25;;;;;;;0.30;0.30;;;10.50;99.90;;;;;;5054107;28;20187;-48
2023/01/04 06:41:51;;;;;;;1.27;0.50;;;10.50;99.90;;;;;;5053969;28;20208;-48
2023/01/04 06:44:16;;;;;;;0.67;0.30;;;10.60;99.90;;;;;;5053870;28;20183;-47
2023/01/04 06:46:42;;;;;;;0.40;0.37;;;10.60;99.90;;;;;;5053637;28;20195;-51
2023/01/04 06:49:07;;;;;;;0.30;0.30;;;10.60;99.90;;;;;;5053953;28;20206;-50
2023/01/04 06:51:33;;;;;;;0.50;0.50;;;10.60;99.90;;;;;;5053668;28;20558;-48
2023/01/04 06:53:58;;;;;;;1.07;0.50;;;10.60;99.90;;;;;;5053585;28;20172;-51
2023/01/04 06:56:24;;;;;;;0.40;0.40;;;10.60;99.90;;;;;;5053528;28;20285;-51
2023/01/04 06:58:49;;;;;;;0.33;0.30;;;10.60;99.90;;;;;;5053749;28;20248;-50
2023/01/04 07:01:15;;;;;;;0.30;0.30;;;10.60;99.90;;;;;;5053548;28;20201;-50
2023/01/04 07:03:41;;;;;;;0.90;0.50;;;10.70;99.90;;;;;;5053410;28;20187;-49
2023/01/04 07:06:07;;;;;;;0.30;0.30;;;10.70;99.90;;;;;;5053305;28;20244;-48
2023/01/04 07:08:33;;;;;;;0.40;0.40;;;10.70;99.90;;;;;;5053347;28;20192;-48
2023/01/04 07:10:59;;;;;;;0.30;0.30;;;10.70;99.90;;;;;;5035469;28;20782;-51
2023/01/04 07:13:25;;;;;;;0.73;0.33;;;10.70;99.90;;;;;;5053437;28;20173;-50
2023/01/04 07:15:50;;;;;;;1.90;0.30;;;10.70;99.90;;;;;;5053255;28;20181;-49
2023/01/04 07:18:16;;;;;;;0.50;0.50;;;10.80;99.90;;;;;;5053310;28;20679;-49
2023/01/04 07:20:42;;;;;;;0.30;0.30;;;10.70;99.90;;;;;;5053517;28;20693;-49
2023/01/04 07:23:08;;;;;;;1.50;0.43;;;10.80;99.90;;;;;;5053215;28;20179;-52
2023/01/04 07:25:33;;;;;;;0.30;0.30;;;10.80;99.90;;;;;;5053148;28;20671;-48
2023/01/04 07:27:59;;;;;;;0.30;0.30;;;10.80;99.90;;;;;;5053159;28;20175;-50
2023/01/04 07:30:25;;;;;;;0.60;0.40;;;10.80;99.90;;;;;;5053231;28;20269;-47
2023/01/04 07:32:52;;;;;;;0.30;0.30;;;10.80;99.90;;;;;;5053034;28;20200;-50
2023/01/04 07:35:19;;;;;;;4.00;0.30;;;10.80;99.90;;;;;;5053063;28;20183;-49
2023/01/04 07:37:45;;;;;;;0.30;0.30;;;10.80;99.90;;;;;;5052984;28;20184;-51
2023/01/04 07:40:10;;;;;;;0.30;0.30;;;10.80;99.90;;;;;;5053227;28;20707;-48
2023/01/04 07:42:36;;;;;;;0.43;0.30;;;10.80;99.90;;;;;;5052833;28;20200;-49
2023/01/04 07:45:03;;;;;;;0.30;0.30;;;10.80;99.90;;;;;;5054365;28;20241;-49
2023/01/04 07:47:28;;;;;;;2.17;0.47;;;10.80;99.90;;;;;;5056982;28;20231;-50
2023/01/04 07:49:54;;;;;;;0.40;0.30;;;10.80;99.90;;;;;;5057270;28;20217;-50
2023/01/04 07:52:20;;;;;;;0.40;0.33;;;10.80;99.90;;;;;;5057017;28;20197;-50
2023/01/04 07:54:45;;;;;;;0.67;0.37;;;10.80;99.90;;;;;;5057060;28;20172;-50
2023/01/04 07:57:11;;;;;;;0.30;0.30;;;10.80;99.90;;;;;;5057070;28;20180;-49
2023/01/04 07:59:36;;;;;;;0.87;0.40;;;10.80;99.90;;;;;;5057072;28;20252;-49
2023/01/04 08:02:02;;;;;;;0.57;0.40;;;10.80;99.90;;;;;;5056824;28;20291;-50
2023/01/04 08:04:28;;;;;;;0.30;0.30;;;10.80;99.90;;;;;;5057832;28;20183;-48
2023/01/04 08:06:53;;;;;;;0.63;0.40;;;10.80;99.90;;;;;;5056735;28;20227;-50
2023/01/04 08:09:19;;;;;;;0.40;0.40;;;10.80;99.90;;;;;;5057376;28;20222;-49
2023/01/04 08:11:46;;;;;;;0.60;0.57;;;10.80;99.90;;;;;;5039499;28;20198;-50
2023/01/04 08:14:12;;;;;;;0.67;0.37;;;10.80;99.90;;;;;;5059841;28;20182;-49
2023/01/04 08:16:40;;;;;;;1.23;0.50;;;10.80;99.90;;;;;;5057784;28;20266;-51
2023/01/04 08:19:10;;;;;;;0.40;0.40;;;10.80;99.90;;;;;;5039212;28;20186;-50
2023/01/04 08:21:36;;;;;;;0.53;0.40;;;10.90;99.90;;;;;;5056870;28;20286;-49
2023/01/04 08:24:02;;;;;;;2.33;0.60;;;10.80;99.90;;;;;;5056456;28;20596;-49
2023/01/04 08:26:28;;;;;;;0.40;0.40;;;10.90;99.90;;;;;;5057234;28;20588;-49
2023/01/04 08:28:55;;;;;;;0.70;0.40;;;10.80;99.90;;;;;;5056462;28;20182;-49
2023/01/04 08:31:24;;;;;;;0.70;0.50;;;10.80;99.90;;;;;;5056251;28;20263;-49
2023/01/04 08:33:50;;;;;;;2.60;0.50;;;10.80;99.90;;;;;;5038491;28;20672;-48
2023/01/04 08:36:19;;;;;;;0.23;0.23;;;10.80;99.90;;;;;;5056346;28;20179;-49
2023/01/04 08:38:49;;;;;;;0.83;0.30;;;10.80;99.90;;;;;;5056144;28;20681;-49
2023/01/04 08:41:16;;;;;;;0.57;0.57;;;10.80;99.90;;;;;;5056309;28;20198;-49
2023/01/04 08:43:41;;;;;;;0.30;0.30;;;10.80;99.90;;;;;;5055916;28;20230;-48
2023/01/04 08:46:07;;;;;;;0.83;0.40;;;10.80;99.90;;;;;;5055909;28;20207;-51
2023/01/04 08:48:34;;;;;;;0.33;0.33;;;10.80;99.90;;;;;;5056002;28;20171;-50
2023/01/04 08:51:01;;;;;;;0.30;0.30;;;10.90;99.90;;;;;;5037941;28;20175;-48
2023/01/04 08:53:27;;;;;;;1.27;0.40;;;11.00;99.90;;;;;;5056447;28;20179;-49
2023/01/04 08:55:53;;;;;;;0.37;0.37;;;11.00;99.90;;;;;;5038163;28;20191;-48
2023/01/04 08:58:20;;;;;;;0.30;0.30;;;11.00;99.90;;;;;;5055415;28;20263;-50
2023/01/04 09:00:45;;;;;;;0.60;0.40;;;11.10;99.90;;;;;;5055797;28;20661;-49
2023/01/04 09:03:12;;;;;;;0.37;0.37;;;11.10;99.90;;;;;;5056036;28;20194;-49
2023/01/04 09:05:38;;;;;;;0.40;0.40;;;11.10;99.90;;;;;;5055743;28;20190;-49
2023/01/04 09:08:04;;;;;;;0.30;0.30;;;11.20;99.90;;;;;;5055914;28;20183;-50
2023/01/04 09:10:29;;;;;;;0.57;0.37;;;11.20;99.90;;;;;;5037712;28;20546;-50
2023/01/04 09:12:55;;;;;;;1.83;0.47;;;11.20;99.90;;;;;;5055519;28;20222;-50
2023/01/04 09:15:21;;;;;;;0.43;0.40;;;11.20;99.90;;;;;;5055455;28;20242;-50
2023/01/04 09:17:48;;;;;;;1.07;0.50;;;11.30;99.90;;;;;;5055442;28;20214;-49
2023/01/04 09:20:15;;;;;;;2.20;0.63;;;11.30;99.90;;;;;;5056223;28;20239;-50
2023/01/04 09:22:40;;;;;;;0.40;0.40;;;11.20;99.90;;;;;;5055266;28;20291;-50
2023/01/04 09:25:06;;;;;;;1.50;0.40;;;11.30;99.90;;;;;;5055315;28;20257;-49
2023/01/04 09:27:32;;;;;;;0.30;0.30;;;11.30;99.90;;;;;;5055581;28;20258;-51
2023/01/04 09:29:58;;;;;;;0.40;0.30;;;11.30;99.90;;;;;;5037349;28;20181;-48
2023/01/04 09:32:24;;;;;;;0.50;0.50;;;11.30;99.90;;;;;;5055446;28;20651;-51
2023/01/04 09:34:50;;;;;;;1.90;0.40;;;11.30;99.90;;;;;;5055556;28;20228;-50
2023/01/04 09:37:15;;;;;;;0.30;0.30;;;11.40;99.90;;;;;;5055080;28;20188;-50
2023/01/04 09:39:41;;;;;;;0.37;0.37;;;11.40;99.90;;;;;;5055305;28;20216;-50
2023/01/04 09:42:33;;;;;;;0.40;0.40;;;11.40;99.90;;;;;;5055355;28;20214;-51
2023/01/04 09:45:21;;;;;;;1.93;0.50;;;11.40;99.90;;;;;;5046698;28;20736;-50
2023/01/04 09:48:03;;;;;;;1.63;0.50;;;11.40;99.90;;;;;;5055135;28;20275;-51
2023/01/04 09:50:42;;;;;;;0.83;0.50;;;11.40;99.90;;;;;;5055530;28;20180;-48
2023/01/04 09:53:11;;;;;;;2.33;0.40;;;11.40;99.90;;;;;;5056478;28;20167;-51
2023/01/04 09:55:47;;;;;;;2.27;0.47;;;11.30;99.90;;;;;;5055570;28;20546;-50
2023/01/04 09:58:29;;;;;;;0.60;0.50;;;11.30;99.90;;;;;;5036806;28;20211;-49
2023/01/04 10:01:13;;;;;;;0.50;0.43;;;11.30;99.90;;;;;;5054895;28;20169;-48
2023/01/04 10:04:01;;;;;;;0.50;0.50;;;11.30;99.90;;;;;;5054876;28;20242;-50
2023/01/04 10:06:27;;;;;;;0.93;0.53;;;11.30;99.90;;;;;;5040372;28;20219;-48
2023/01/04 10:09:00;;;;;;;0.83;0.40;;;11.30;99.90;;;;;;5053669;28;20180;-49
2023/01/04 10:11:49;;;;;;;2.10;0.50;;;11.20;99.90;;;;;;5054635;28;20557;-50
2023/01/04 10:14:47;;;;;;;0.47;0.47;;;11.20;99.90;;;;;;5054351;28;20169;-49
2023/01/04 10:17:46;;;;;;;1.30;0.40;;;11.20;99.90;;;;;;5054554;28;20564;-48
2023/01/04 10:20:30;;;;;;;0.73;0.60;;;11.20;99.90;;;;;;5054601;28;20172;-50
2023/01/04 10:23:24;;;;;;;0.43;0.40;;;11.20;99.90;;;;;;5054200;28;20283;-48
2023/01/04 10:26:02;;;;;;;0.50;0.50;;;11.20;99.90;;;;;;5054369;28;20554;-49
2023/01/04 10:28:43;;;;;;;0.63;0.40;;;11.20;99.90;;;;;;5054396;28;20176;-49
2023/01/04 10:31:17;;;;;;;0.53;0.50;;;11.30;99.90;;;;;;5054076;28;20261;-49
2023/01/04 10:33:54;;;;;;;2.70;0.60;;;11.30;99.90;;;;;;5053995;28;20643;-48
2023/01/04 10:36:23;;;;;;;0.90;0.40;;;11.30;99.90;;;;;;5054169;28;20164;-49
2023/01/04 10:39:02;;;;;;;2.00;0.50;;;11.30;99.90;;;;;;5054200;28;20191;-50
2023/01/04 10:41:33;;;;;;;0.40;0.40;;;11.30;99.90;;;;;;5054015;28;20667;-49
2023/01/04 10:44:23;;;;;;;1.77;0.80;;;11.40;99.90;;;;;;5054418;28;20172;-47
2023/01/04 10:47:29;;;;;;;1.87;0.90;;;11.40;99.90;;;;;;5035854;28;20203;-51
2023/01/04 10:50:13;;;;;;;1.57;0.83;;;11.40;99.90;;;;;;4982697;28;20191;-51
2023/01/04 10:53:02;;;;;;;1.47;0.53;;;11.40;99.90;;;;;;5053755;28;20226;-50
2023/01/04 10:55:52;;;;;;;0.70;0.60;;;11.40;99.90;;;;;;5041629;28;20583;-48
2023/01/04 10:59:01;;;;;;;1.33;0.60;;;11.40;99.90;;;;;;5054371;28;20644;-49
2023/01/04 11:01:42;;;;;;;1.57;0.50;;;11.40;99.90;;;;;;5040018;28;20324;-48
2023/01/04 11:04:17;;;;;;;2.13;0.70;;;11.40;99.90;;;;;;5035647;28;20169;-48
2023/01/04 11:06:51;;;;;;;0.90;0.70;;;11.40;99.90;;;;;;5053458;28;20183;-47
2023/01/04 11:09:23;;;;;;;2.73;0.77;;;11.50;99.90;;;;;;5053677;28;20160;-48
2023/01/04 11:11:49;;;;;;;2.63;0.40;;;11.40;99.90;;;;;;5035441;28;20192;-48
2023/01/04 11:14:16;;;;;;;1.33;0.60;;;11.40;99.90;;;;;;5053219;28;20674;-47
2023/01/04 11:16:48;;;;;;;1.00;0.47;;;11.40;99.90;;;;;;5053508;28;20192;-48
2023/01/04 11:19:14;;;;;;;0.50;0.50;;;11.40;99.90;;;;;;5053001;28;20176;-48
2023/01/04 11:21:53;;;;;;;1.07;0.60;;;11.40;99.90;;;;;;5053246;28;20196;-49
2023/01/04 11:24:19;;;;;;;0.77;0.47;;;11.40;99.90;;;;;;5053796;28;20194;-47
2023/01/04 11:26:47;;;;;;;0.40;0.40;;;11.50;99.90;;;;;;5053118;28;20196;-48
2023/01/04 11:29:47;;;;;;;1.50;0.40;;;11.40;99.90;;;;;;5035130;28;20219;-49
2023/01/04 11:32:32;;;;;;;0.53;0.40;;;11.40;99.90;;;;;;5052866;28;20215;-48
2023/01/04 11:34:58;;;;;;;0.90;0.63;;;11.50;99.90;;;;;;5053402;28;20173;-47
2023/01/04 11:37:36;;;;;;;0.80;0.40;;;11.50;99.90;;;;;;5053044;28;20659;-50
2023/01/04 11:40:15;;;;;;;0.70;0.40;;;11.50;99.90;;;;;;5053372;28;20215;-49
2023/01/04 11:42:40;;;;;;;0.73;0.40;;;11.50;99.90;;;;;;5052920;28;20196;-48
2023/01/04 11:45:25;;;;;;;0.87;0.50;;;11.50;99.90;;;;;;5053054;28;20647;-48
2023/01/04 11:47:59;;;;;;;1.00;0.53;;;11.50;99.90;;;;;;5053050;28;20605;-49
2023/01/04 11:50:39;;;;;;;0.87;0.40;;;11.60;99.90;;;;;;5052892;28;20218;-48
2023/01/04 11:53:26;;;;;;;0.60;0.40;;;11.50;99.90;;;;;;5052995;28;20218;-49
2023/01/04 11:56:08;;;;;;;0.47;0.30;;;11.60;99.90;;;;;;5052744;28;20524;-48
2023/01/04 11:58:34;;;;;;;1.27;0.60;;;11.60;99.90;;;;;;5053162;28;20188;-48
2023/01/04 12:01:00;;;;;;;0.40;0.40;;;11.70;99.90;;;;;;5034867;28;20687;-49
2023/01/04 12:03:28;;;;;;;1.20;0.40;;;11.70;99.90;;;;;;5035051;28;20278;-50
2023/01/04 12:05:54;;;;;;;0.50;0.33;;;11.70;99.90;;;;;;5052851;28;20254;-43
2023/01/04 12:08:34;;;;;;;0.40;0.40;;;11.70;99.90;;;;;;5052904;28;20586;-42
2023/01/04 12:11:03;;;;;;;0.43;0.40;;;11.80;99.90;;;;;;5035883;28;20172;-43
2023/01/04 12:13:30;;;;;;;0.90;0.37;;;11.80;99.90;;;;;;5052710;28;20181;-46
2023/01/04 12:16:00;;;;;;;0.50;0.27;;;11.80;99.90;;;;;;5053193;28;20177;-45
2023/01/04 12:18:29;;;;;;;0.40;0.30;;;11.80;99.90;;;;;;5053088;28;20172;-44
2023/01/04 12:20:55;;;;;;;0.67;0.33;;;11.80;99.90;;;;;;5052912;28;20176;-43
2023/01/04 12:23:22;;;;;;;0.60;0.30;;;11.80;99.90;;;;;;5035392;28;20188;-45
2023/01/04 12:25:51;;;;;;;0.30;0.30;;;11.80;99.90;;;;;;5057389;28;20180;-43
2023/01/04 12:28:33;;;;;;;0.33;0.30;;;11.80;99.90;;;;;;5057088;28;20215;-43
2023/01/04 12:31:20;;;;;;;0.40;0.40;;;11.80;99.90;;;;;;5053204;28;20279;-46
2023/01/04 12:33:56;;;;;;;0.30;0.30;;;11.80;99.90;;;;;;5038378;28;20180;-43
2023/01/04 12:36:37;;;;;;;0.43;0.37;;;11.80;99.90;;;;;;5056531;28;20620;-43
2023/01/04 12:39:14;;;;;;;0.23;0.23;;;11.80;99.90;;;;;;5056205;28;20708;-44
2023/01/04 12:41:40;;;;;;;0.50;0.40;;;11.80;99.90;;;;;;5056055;28;20196;-42
2023/01/04 12:44:39;;;;;;;0.30;0.30;;;11.70;99.90;;;;;;5056431;28;20188;-45
2023/01/04 12:50:10;;;;;;;0.40;0.40;;;11.80;99.90;;;;;;5056330;28;20522;-42
2023/01/04 12:52:46;;;;;;;0.27;0.27;;;11.70;99.90;;;;;;5056250;28;20200;-46
2023/01/04 12:55:46;;;;;;;0.60;0.30;;;11.70;99.90;;;;;;5055714;28;20184;-44
2023/01/04 12:58:27;;;;;;;0.30;0.30;;;11.70;99.90;;;;;;5055749;28;20305;-45
2023/01/04 13:00:52;;;;;;;0.37;0.37;;;11.70;99.90;;;;;;5055930;28;20554;-45
2023/01/04 13:03:18;;;;;;;1.10;0.40;;;11.70;99.90;;;;;;5055725;28;20183;-43
2023/01/04 13:06:04;;;;;;;0.30;0.30;;;11.70;99.90;;;;;;5055852;28;20183;-43
2023/01/04 13:08:32;;;;;;;0.30;0.30;;;11.70;99.90;;;;;;5055429;28;20191;-44
2023/01/04 13:10:59;;;;;;;0.30;0.30;;;11.80;99.90;;;;;;5037660;28;20176;-43
2023/01/04 13:13:31;;;;;;;0.60;0.30;;;11.80;99.90;;;;;;5055523;28;20266;-45
2023/01/04 13:16:40;;;;;;;0.30;0.30;;;11.80;99.90;;;;;;5055606;28;20686;-43
2023/01/04 13:19:24;;;;;;;0.20;0.20;;;11.80;99.90;;;;;;4974609;28;20187;-44
2023/01/04 13:21:52;;;;;;;0.27;0.27;;;11.80;99.90;;;;;;4974530;28;20258;-43
2023/01/04 13:24:29;;;;;;;0.30;0.30;;;11.80;99.90;;;;;;5009379;28;20275;-46
2023/01/04 13:26:55;;;;;;;0.30;0.30;;;11.90;99.90;;;;;;5037295;28;20283;-42
2023/01/04 13:37:41;;;;;;;0.30;0.30;;;11.90;99.90;;;;;;5032559;28;20247;-40
2023/01/04 13:40:22;;;;;;;0.60;0.30;;;11.90;99.90;;;;;;5035447;28;20171;-43
2023/01/04 13:42:54;;;;;;;0.53;0.27;;;12.00;99.90;;;;;;5034383;28;20196;-44
2023/01/04 13:45:29;;;;;;;0.33;0.30;;;12.00;99.90;;;;;;5054873;28;20173;-45
2023/01/04 13:47:59;;;;;;;0.20;0.20;;;12.00;99.90;;;;;;5055108;28;20317;-44
2023/01/04 13:50:38;;;;;;;0.20;0.20;;;12.10;99.90;;;;;;5054799;28;20184;-47
2023/01/04 13:53:04;;;;;;;0.20;0.20;;;12.10;99.90;;;;;;5055166;28;20211;-46
2023/01/04 13:55:32;;;;;;;0.20;0.20;;;12.10;99.90;;;;;;5057296;28;20576;-45
2023/01/04 13:58:14;;;;;;;0.30;0.30;;;12.10;99.90;;;;;;5036890;28;20180;-45
2023/01/04 14:01:01;;;;;;;0.37;0.20;;;12.10;99.90;;;;;;5055065;28;20251;-43
2023/01/04 14:03:31;;;;;;;0.27;0.27;;;12.10;99.90;;;;;;5054965;28;20497;-45
2023/01/04 14:06:12;;;;;;;0.20;0.20;;;12.10;99.90;;;;;;5054774;28;20218;-46
2023/01/04 14:08:48;;;;;;;0.20;0.20;;;12.10;99.90;;;;;;5054812;28;20164;-45
2023/01/04 14:14:32;;;;;;;0.37;0.33;;;12.10;99.90;;;;;;5054948;28;20163;-46